Time;durP1;ratioP1;P1;durP2;ratioP2;P2;SDS_P1;SDS_P2;PMS_P1;PMS_P2;Temp;Humidity;BMP_temperature;BMP_pressure;BME280_temperature;BME280_humidity;BME280_pressure;Samples;Min_cycle;Max_cycle;Signal;HPM_P1;HPM_P2
2021/03/25 00:00:21;;;;;;;11.90;5.53;;;3.60;99.90;;;;;;1868386;76;21155;-73
2021/03/25 00:02:47;;;;;;;9.20;5.17;;;3.60;99.90;;;;;;1853391;75;21265;-72
2021/03/25 00:05:13;;;;;;;11.38;5.12;;;3.50;99.90;;;;;;1847458;75;21194;-74
2021/03/25 00:07:39;;;;;;;9.65;4.85;;;3.50;99.90;;;;;;1855966;75;21085;-73
2021/03/25 00:10:06;;;;;;;7.50;4.90;;;3.40;99.90;;;;;;1865085;75;21085;-74
2021/03/25 00:12:32;;;;;;;8.95;4.85;;;3.40;99.90;;;;;;1865682;76;21057;-73
2021/03/25 00:14:58;;;;;;;10.93;5.47;;;3.30;99.90;;;;;;1845088;75;21146;-73
2021/03/25 00:17:24;;;;;;;13.55;5.85;;;3.20;99.90;;;;;;1870208;76;21228;-73
2021/03/25 00:19:50;;;;;;;6.67;4.43;;;3.20;99.90;;;;;;1848462;75;21158;-73
2021/03/25 00:22:16;;;;;;;9.30;5.15;;;3.20;99.90;;;;;;1854858;75;21096;-73
2021/03/25 00:24:42;;;;;;;9.98;5.03;;;3.10;99.90;;;;;;1853742;75;21162;-73
2021/03/25 00:27:08;;;;;;;21.15;6.03;;;3.10;99.90;;;;;;1856441;76;21143;-73
2021/03/25 00:29:34;;;;;;;14.07;4.95;;;2.90;99.90;;;;;;1860635;75;21564;-73
2021/03/25 00:32:01;;;;;;;14.00;5.95;;;3.00;99.90;;;;;;1864547;75;21575;-73
2021/03/25 00:34:27;;;;;;;9.78;5.25;;;3.00;99.90;;;;;;1856685;75;21490;-74
2021/03/25 00:36:53;;;;;;;9.55;4.62;;;3.00;99.90;;;;;;1859389;75;21132;-73
2021/03/25 00:39:19;;;;;;;8.10;5.30;;;3.00;99.90;;;;;;1862584;75;21073;-73
2021/03/25 00:41:45;;;;;;;12.60;5.00;;;2.90;99.90;;;;;;1873274;76;21154;-73
2021/03/25 00:44:11;;;;;;;11.50;5.75;;;3.00;99.90;;;;;;1852200;75;21164;-73
2021/03/25 00:46:37;;;;;;;13.78;5.53;;;3.00;99.90;;;;;;1867130;74;21062;-73
2021/03/25 00:49:04;;;;;;;16.70;5.37;;;2.90;99.90;;;;;;1850849;75;21158;-74
2021/03/25 00:51:30;;;;;;;7.92;5.33;;;2.80;99.90;;;;;;1863506;75;21101;-74
2021/03/25 00:53:56;;;;;;;11.57;5.72;;;2.80;99.90;;;;;;1863526;76;21496;-74
2021/03/25 00:56:22;;;;;;;7.87;4.72;;;2.80;99.90;;;;;;1854324;75;21586;-74
2021/03/25 00:58:48;;;;;;;10.58;4.90;;;2.80;99.90;;;;;;1872417;76;21493;-73
2021/03/25 01:01:14;;;;;;;8.93;5.47;;;2.80;99.90;;;;;;1868455;75;21088;-74
2021/03/25 01:03:40;;;;;;;9.60;5.33;;;2.80;99.90;;;;;;1850337;75;21172;-73
2021/03/25 01:06:06;;;;;;;9.25;5.33;;;2.80;99.90;;;;;;1850220;75;21084;-73
2021/03/25 01:08:33;;;;;;;9.00;4.85;;;2.70;99.90;;;;;;1847867;75;21089;-73
2021/03/25 01:10:59;;;;;;;9.05;4.97;;;2.70;99.90;;;;;;1855415;75;21069;-74
2021/03/25 01:13:25;;;;;;;16.87;5.97;;;2.70;99.90;;;;;;1855690;75;21084;-73
2021/03/25 01:15:51;;;;;;;9.13;5.70;;;2.70;99.90;;;;;;1868139;75;21212;-74
2021/03/25 01:18:17;;;;;;;8.10;4.95;;;2.60;99.90;;;;;;1851173;75;21096;-73
2021/03/25 01:20:43;;;;;;;9.35;5.87;;;2.60;99.90;;;;;;1849637;75;21062;-74
2021/03/25 01:23:09;;;;;;;10.72;5.12;;;2.60;99.90;;;;;;1857222;74;21154;-73
2021/03/25 01:25:35;;;;;;;10.32;5.10;;;2.50;99.90;;;;;;1845017;75;21163;-74
2021/03/25 01:28:02;;;;;;;10.85;5.37;;;2.50;99.90;;;;;;1848617;76;21588;-73
2021/03/25 01:30:28;;;;;;;10.38;5.15;;;2.50;99.90;;;;;;1852813;75;21489;-74
2021/03/25 01:32:54;;;;;;;14.83;5.87;;;2.50;99.90;;;;;;1857777;75;21502;-73
2021/03/25 01:35:20;;;;;;;8.40;5.35;;;2.40;99.90;;;;;;1851747;75;21068;-74
2021/03/25 01:37:46;;;;;;;10.40;5.65;;;2.40;99.90;;;;;;1863170;76;21142;-73
2021/03/25 01:40:12;;;;;;;13.22;5.45;;;2.30;99.90;;;;;;1872292;76;21158;-73
2021/03/25 01:42:38;;;;;;;15.05;5.72;;;2.30;99.90;;;;;;1862567;75;21079;-73
2021/03/25 01:45:04;;;;;;;9.50;5.22;;;2.40;99.90;;;;;;1856548;75;21085;-74
2021/03/25 01:47:30;;;;;;;14.85;5.40;;;2.40;99.90;;;;;;1846401;75;21076;-72
2021/03/25 01:49:57;;;;;;;10.10;5.37;;;2.40;99.90;;;;;;1864713;76;21061;-73
2021/03/25 01:52:23;;;;;;;10.18;4.92;;;2.40;99.90;;;;;;1867682;76;21193;-74
2021/03/25 01:54:49;;;;;;;7.37;5.03;;;2.40;99.90;;;;;;1860120;75;21089;-73
2021/03/25 01:57:15;;;;;;;6.83;4.65;;;2.30;99.90;;;;;;1867459;75;21079;-73
2021/03/25 01:59:41;;;;;;;14.87;5.35;;;2.30;99.90;;;;;;1862827;76;21095;-73
2021/03/25 02:02:07;;;;;;;13.40;5.20;;;2.30;99.90;;;;;;1862892;76;21093;-73
2021/03/25 02:04:33;;;;;;;9.80;5.92;;;2.30;99.90;;;;;;1852784;75;21485;-73
2021/03/25 02:07:00;;;;;;;8.73;4.95;;;2.20;99.90;;;;;;1848600;75;21089;-73
2021/03/25 02:09:26;;;;;;;9.80;5.95;;;2.20;99.90;;;;;;1870475;76;21048;-73
2021/03/25 02:11:52;;;;;;;9.85;5.00;;;2.10;99.90;;;;;;1855537;75;21081;-73
2021/03/25 02:14:18;;;;;;;10.20;5.47;;;2.10;99.90;;;;;;1844917;75;21097;-74
2021/03/25 02:16:44;;;;;;;11.10;5.53;;;2.10;99.90;;;;;;1859720;75;21092;-74
2021/03/25 02:19:10;;;;;;;7.90;4.40;;;2.10;99.90;;;;;;1866617;75;21092;-73
2021/03/25 02:21:36;;;;;;;10.88;5.33;;;2.10;99.90;;;;;;1858900;75;21175;-74
2021/03/25 02:24:02;;;;;;;7.65;4.60;;;2.00;99.90;;;;;;1855738;75;21065;-74
2021/03/25 02:26:28;;;;;;;13.48;5.47;;;2.00;99.90;;;;;;1855651;75;21501;-73
2021/03/25 02:28:55;;;;;;;7.83;5.17;;;2.00;99.90;;;;;;1847127;75;21493;-73
2021/03/25 02:31:21;;;;;;;6.80;4.40;;;2.00;99.90;;;;;;1861962;76;21484;-73
2021/03/25 02:33:47;;;;;;;20.23;5.45;;;1.90;99.90;;;;;;1849755;75;21516;-74
2021/03/25 02:36:13;;;;;;;8.45;4.72;;;1.90;99.90;;;;;;1855650;74;21552;-73
2021/03/25 02:38:39;;;;;;;11.38;5.53;;;1.90;99.90;;;;;;1870522;76;21090;-73
2021/03/25 02:41:05;;;;;;;9.55;5.30;;;1.90;99.90;;;;;;1850906;76;21058;-73
2021/03/25 02:43:31;;;;;;;8.78;5.30;;;1.90;99.90;;;;;;1867496;76;21162;-72
2021/03/25 02:45:57;;;;;;;9.75;5.10;;;1.90;99.90;;;;;;1864271;76;21084;-73
2021/03/25 02:48:23;;;;;;;14.85;4.92;;;1.80;99.90;;;;;;1853446;75;21124;-73
2021/03/25 02:50:50;;;;;;;8.63;4.95;;;1.80;99.90;;;;;;1847225;75;21155;-73
2021/03/25 02:53:16;;;;;;;8.23;4.70;;;1.80;99.90;;;;;;1858531;75;21206;-74
2021/03/25 02:55:42;;;;;;;9.45;5.40;;;1.70;99.90;;;;;;1860920;75;21522;-74
2021/03/25 02:58:08;;;;;;;13.83;5.15;;;1.70;99.90;;;;;;1868292;75;21497;-73
2021/03/25 03:00:34;;;;;;;5.70;4.17;;;1.70;99.90;;;;;;1852750;75;21085;-73
2021/03/25 03:03:00;;;;;;;11.08;4.78;;;1.70;99.90;;;;;;1857817;75;21099;-73
2021/03/25 03:05:26;;;;;;;7.53;4.80;;;1.70;99.90;;;;;;1866423;76;21154;-73
2021/03/25 03:07:53;;;;;;;7.05;4.15;;;1.70;99.90;;;;;;1852531;75;21088;-73
2021/03/25 03:10:19;;;;;;;8.98;3.98;;;1.70;99.90;;;;;;1850783;76;21089;-73
2021/03/25 03:12:45;;;;;;;9.53;4.70;;;1.70;99.90;;;;;;1851533;75;21088;-74
2021/03/25 03:15:11;;;;;;;12.78;4.85;;;1.70;99.90;;;;;;1860585;76;21508;-73
2021/03/25 03:17:37;;;;;;;7.83;4.08;;;1.70;99.90;;;;;;1863015;74;21480;-73
2021/03/25 03:20:04;;;;;;;7.75;4.05;;;1.70;99.90;;;;;;1864714;76;21509;-74
2021/03/25 03:22:30;;;;;;;6.12;4.28;;;1.70;99.90;;;;;;1844976;75;21058;-73
2021/03/25 03:24:56;;;;;;;8.50;4.72;;;1.60;99.90;;;;;;1852620;76;21162;-74
2021/03/25 03:27:22;;;;;;;6.00;4.28;;;1.60;99.90;;;;;;1850894;75;21085;-75
2021/03/25 03:29:48;;;;;;;5.67;4.05;;;1.60;99.90;;;;;;1845932;75;21096;-74
2021/03/25 03:32:14;;;;;;;9.10;4.28;;;1.60;99.90;;;;;;1857990;74;21143;-73
2021/03/25 03:34:40;;;;;;;6.60;4.00;;;1.60;99.90;;;;;;1858612;76;21096;-74
2021/03/25 03:37:06;;;;;;;9.78;5.78;;;1.60;99.90;;;;;;1863524;75;21085;-73
2021/03/25 03:39:33;;;;;;;9.80;4.78;;;1.60;99.90;;;;;;1868690;76;21065;-73
2021/03/25 03:41:59;;;;;;;9.18;4.33;;;1.50;99.90;;;;;;1860656;75;21080;-73
2021/03/25 03:44:25;;;;;;;9.10;3.85;;;1.60;99.90;;;;;;1854738;75;21092;-73
2021/03/25 03:46:51;;;;;;;15.88;4.70;;;1.50;99.90;;;;;;1858196;75;21092;-74
2021/03/25 03:49:18;;;;;;;6.90;4.33;;;1.40;99.90;;;;;;1845023;75;21534;-74
2021/03/25 03:51:44;;;;;;;6.25;4.47;;;1.40;99.90;;;;;;1860696;76;21084;-74
2021/03/25 03:54:10;;;;;;;8.05;4.50;;;1.40;99.90;;;;;;1856434;75;21159;-73
2021/03/25 03:56:36;;;;;;;10.10;4.30;;;1.40;99.90;;;;;;1852791;76;21088;-73
2021/03/25 03:59:03;;;;;;;8.98;5.05;;;1.40;99.90;;;;;;1864931;75;21100;-74
2021/03/25 04:01:29;;;;;;;13.43;4.72;;;1.40;99.90;;;;;;1868446;76;21559;-73
2021/03/25 04:03:55;;;;;;;7.12;4.17;;;1.40;99.90;;;;;;1865551;75;22968;-73
2021/03/25 04:06:21;;;;;;;6.87;4.45;;;1.40;99.90;;;;;;1866191;75;21580;-74
2021/03/25 04:08:47;;;;;;;10.23;4.87;;;1.40;99.90;;;;;;1867087;76;21073;-74
2021/03/25 04:11:13;;;;;;;7.05;4.55;;;1.40;99.90;;;;;;1853080;75;21163;-74
2021/03/25 04:13:39;;;;;;;9.28;4.67;;;1.40;99.90;;;;;;1852511;76;21202;-74
2021/03/25 04:16:05;;;;;;;6.83;4.65;;;1.40;99.90;;;;;;1854168;75;21093;-74
2021/03/25 04:18:32;;;;;;;8.73;5.08;;;1.40;99.90;;;;;;1850755;75;21188;-73
2021/03/25 04:20:58;;;;;;;11.73;4.92;;;1.30;99.90;;;;;;1844969;75;21101;-73
2021/03/25 04:23:24;;;;;;;7.08;4.47;;;1.30;99.90;;;;;;1847902;75;21089;-74
2021/03/25 04:25:50;;;;;;;8.08;4.62;;;1.20;99.90;;;;;;1860600;75;21649;-73
2021/03/25 04:28:16;;;;;;;7.08;4.00;;;1.20;99.90;;;;;;1867568;75;21457;-73
2021/03/25 04:30:44;;;;;;;7.70;4.53;;;1.20;99.90;;;;;;1872260;76;21092;-74
2021/03/25 04:33:10;;;;;;;6.72;4.05;;;1.20;99.90;;;;;;1857684;75;21100;-73
2021/03/25 04:35:36;;;;;;;7.00;4.72;;;1.20;99.90;;;;;;1854946;76;21100;-74
2021/03/25 04:38:02;;;;;;;8.90;4.35;;;1.30;99.90;;;;;;1870359;76;21550;-74
2021/03/25 04:40:28;;;;;;;9.65;4.37;;;1.30;99.90;;;;;;1862982;76;21552;-73
2021/03/25 04:42:54;;;;;;;6.00;4.17;;;1.20;99.90;;;;;;1844918;75;21164;-73
2021/03/25 04:45:20;;;;;;;9.30;4.75;;;1.20;99.90;;;;;;1849980;75;21083;-74
2021/03/25 04:47:47;;;;;;;8.03;4.92;;;1.20;99.90;;;;;;1869259;76;21060;-73
2021/03/25 04:50:13;;;;;;;8.23;4.85;;;1.10;99.90;;;;;;1871364;76;21138;-73
2021/03/25 04:52:43;;;;;;;7.62;5.00;;;1.20;99.90;;;;;;1851301;75;21151;-73
2021/03/25 04:55:09;;;;;;;6.83;3.92;;;1.10;99.90;;;;;;1866332;76;21093;-74
2021/03/25 04:57:35;;;;;;;8.38;4.28;;;1.20;99.90;;;;;;1865919;76;21558;-74
2021/03/25 05:00:02;;;;;;;8.55;4.35;;;1.10;99.90;;;;;;1866306;76;21277;-73
2021/03/25 05:02:28;;;;;;;10.95;5.25;;;1.20;99.90;;;;;;1849122;74;21066;-74
2021/03/25 05:04:54;;;;;;;8.10;5.00;;;1.10;99.90;;;;;;1867992;75;21086;-75
2021/03/25 05:07:20;;;;;;;11.28;5.75;;;1.10;99.90;;;;;;1853676;75;21089;-74
2021/03/25 05:09:46;;;;;;;13.20;5.60;;;1.00;99.90;;;;;;1860696;75;21085;-74
2021/03/25 05:12:12;;;;;;;6.47;4.67;;;1.00;99.90;;;;;;1861356;75;21084;-74
2021/03/25 05:14:38;;;;;;;11.83;5.72;;;0.90;99.90;;;;;;1863031;76;21170;-75
2021/03/25 05:17:04;;;;;;;8.33;5.25;;;0.90;99.90;;;;;;1844837;75;21065;-75
2021/03/25 05:19:31;;;;;;;11.05;5.10;;;0.90;99.90;;;;;;1848706;75;21084;-73
2021/03/25 05:21:57;;;;;;;7.97;5.00;;;1.00;99.90;;;;;;1850581;75;21520;-73
2021/03/25 05:24:23;;;;;;;6.85;4.55;;;1.10;99.90;;;;;;1846715;75;21181;-73
2021/03/25 05:26:49;;;;;;;14.13;5.28;;;1.20;99.90;;;;;;1861014;75;21175;-74
2021/03/25 05:29:15;;;;;;;10.80;5.08;;;1.10;99.90;;;;;;1849578;75;21081;-73
2021/03/25 05:31:41;;;;;;;11.12;5.03;;;1.10;99.90;;;;;;1853794;75;21158;-74
2021/03/25 05:34:08;;;;;;;6.40;4.47;;;1.10;99.90;;;;;;1849129;75;21081;-74
2021/03/25 05:36:34;;;;;;;11.88;4.85;;;1.20;99.90;;;;;;1870332;76;21156;-73
2021/03/25 05:39:00;;;;;;;6.22;4.17;;;1.20;99.90;;;;;;1852564;75;21105;-73
2021/03/25 05:41:26;;;;;;;9.63;5.15;;;1.10;99.90;;;;;;1852824;75;21485;-73
2021/03/25 05:43:52;;;;;;;11.68;5.45;;;1.10;99.90;;;;;;1866756;76;21500;-74
2021/03/25 05:46:18;;;;;;;7.53;4.70;;;1.20;99.90;;;;;;1855548;75;21095;-74
2021/03/25 05:48:44;;;;;;;6.60;4.53;;;1.20;99.90;;;;;;1846991;75;21158;-75
2021/03/25 05:51:11;;;;;;;9.45;4.95;;;1.10;99.90;;;;;;1859305;75;21154;-74
2021/03/25 05:53:37;;;;;;;11.63;5.95;;;1.10;99.90;;;;;;1856402;75;21092;-74
2021/03/25 05:56:03;;;;;;;8.88;5.70;;;1.10;99.90;;;;;;1863518;76;21401;-74
2021/03/25 05:58:31;;;;;;;10.15;5.10;;;1.20;99.90;;;;;;1844993;75;21050;-74
2021/03/25 06:00:57;;;;;;;11.05;6.12;;;1.20;99.90;;;;;;1853704;75;21509;-75
2021/03/25 06:03:23;;;;;;;7.37;5.03;;;1.20;99.90;;;;;;1863576;76;21052;-74
2021/03/25 06:05:49;;;;;;;10.78;5.55;;;1.30;99.90;;;;;;1857665;75;21096;-73
2021/03/25 06:08:15;;;;;;;11.35;5.83;;;1.40;99.90;;;;;;1855549;76;21229;-75
2021/03/25 06:10:41;;;;;;;6.10;4.62;;;1.50;99.90;;;;;;1864011;75;21100;-74
2021/03/25 06:13:07;;;;;;;13.53;6.00;;;1.60;99.90;;;;;;1844806;75;21085;-74
2021/03/25 06:15:34;;;;;;;7.95;5.47;;;1.70;99.90;;;;;;1847737;75;21097;-74
2021/03/25 06:18:00;;;;;;;11.38;5.87;;;1.80;99.90;;;;;;1862354;76;21057;-76
2021/03/25 06:20:26;;;;;;;9.43;5.67;;;1.90;99.90;;;;;;1854730;76;21142;-76
2021/03/25 06:22:52;;;;;;;9.20;5.53;;;2.00;99.90;;;;;;1858880;74;21162;-76
2021/03/25 06:25:18;;;;;;;8.68;4.60;;;2.10;99.90;;;;;;1859116;76;21084;-77
2021/03/25 06:27:44;;;;;;;8.03;5.50;;;2.30;99.90;;;;;;1849133;75;21162;-78
2021/03/25 06:30:10;;;;;;;8.88;4.55;;;2.30;99.90;;;;;;1868777;76;21083;-76
2021/03/25 06:32:36;;;;;;;11.18;5.92;;;2.30;99.90;;;;;;1852069;75;21599;-76
2021/03/25 06:35:02;;;;;;;6.58;4.97;;;2.60;99.90;;;;;;1856260;74;21459;-75
2021/03/25 06:37:29;;;;;;;9.80;6.17;;;2.50;99.90;;;;;;1865469;75;21562;-75
2021/03/25 06:39:55;;;;;;;11.25;5.92;;;2.60;99.90;;;;;;1860460;75;21155;-76
2021/03/25 06:42:21;;;;;;;10.28;5.97;;;2.70;99.90;;;;;;1873969;76;21170;-76
2021/03/25 06:44:47;;;;;;;18.10;6.55;;;2.70;99.90;;;;;;1851137;75;21092;-76
2021/03/25 06:47:13;;;;;;;18.62;6.25;;;2.80;99.90;;;;;;1849078;75;21154;-75
2021/03/25 06:49:39;;;;;;;11.12;6.33;;;3.00;99.90;;;;;;1863304;75;21166;-76
2021/03/25 06:52:05;;;;;;;11.43;6.42;;;3.10;99.90;;;;;;1844812;75;21054;-76
2021/03/25 06:54:31;;;;;;;14.18;5.72;;;3.20;99.90;;;;;;1853653;74;21093;-77
2021/03/25 06:56:58;;;;;;;17.75;6.60;;;3.30;99.90;;;;;;1865425;76;21233;-76
2021/03/25 06:59:24;;;;;;;8.35;5.33;;;3.40;99.90;;;;;;1867224;75;21610;-76
2021/03/25 07:01:50;;;;;;;12.13;6.05;;;3.40;99.90;;;;;;1874744;74;21575;-76
2021/03/25 07:04:17;;;;;;;7.90;5.03;;;3.50;99.90;;;;;;1877060;74;21143;-76
2021/03/25 07:06:44;;;;;;;14.95;6.20;;;3.60;99.90;;;;;;1878089;74;21501;-76
2021/03/25 07:09:10;;;;;;;12.95;6.15;;;3.70;99.90;;;;;;1878898;75;21078;-77
2021/03/25 07:11:38;;;;;;;10.40;5.65;;;3.80;99.90;;;;;;1880188;74;21055;-76
2021/03/25 07:14:07;;;;;;;12.85;6.17;;;3.90;99.90;;;;;;1879405;74;21439;-77
2021/03/25 07:16:31;;;;;;;11.95;5.80;;;4.00;99.90;;;;;;1875946;74;21089;-77
2021/03/25 07:18:57;;;;;;;15.20;5.85;;;4.20;99.90;;;;;;1878449;74;21140;-76
2021/03/25 07:21:24;;;;;;;10.85;5.97;;;4.20;99.90;;;;;;1879239;74;21136;-77
2021/03/25 07:23:50;;;;;;;16.87;5.78;;;4.40;99.90;;;;;;1878245;74;21070;-76
2021/03/25 07:26:16;;;;;;;18.50;6.25;;;4.50;99.90;;;;;;1879552;73;21151;-75
2021/03/25 07:28:42;;;;;;;12.98;5.05;;;4.60;99.90;;;;;;1876976;75;21047;-76
2021/03/25 07:31:08;;;;;;;24.37;5.58;;;4.60;99.90;;;;;;1880303;73;21082;-77
2021/03/25 07:33:34;;;;;;;8.70;5.15;;;4.70;99.90;;;;;;1878576;74;21082;-77
2021/03/25 07:36:00;;;;;;;10.08;5.72;;;4.90;99.90;;;;;;1876799;74;21078;-76
2021/03/25 07:38:27;;;;;;;13.28;5.58;;;5.10;99.90;;;;;;1880140;74;21120;-78
2021/03/25 07:40:53;;;;;;;12.95;5.30;;;5.30;99.90;;;;;;1878686;74;21140;-77
2021/03/25 07:43:19;;;;;;;8.43;5.12;;;5.40;99.90;;;;;;1878604;75;21050;-76
2021/03/25 07:45:45;;;;;;;13.35;5.70;;;5.40;99.90;;;;;;1878447;75;21548;-76
2021/03/25 07:48:11;;;;;;;9.03;5.22;;;5.60;99.90;;;;;;1880176;75;21439;-76
2021/03/25 07:50:37;;;;;;;8.13;4.85;;;5.60;99.90;;;;;;1879632;73;21078;-75
2021/03/25 07:53:03;;;;;;;9.15;4.92;;;5.80;99.90;;;;;;1875888;74;21136;-77
2021/03/25 07:55:31;;;;;;;9.30;4.90;;;5.90;99.90;;;;;;1879755;74;21131;-77
2021/03/25 07:57:57;;;;;;;8.88;5.12;;;6.00;99.90;;;;;;1873880;74;21567;-78
2021/03/25 08:00:23;;;;;;;12.20;5.53;;;6.30;99.90;;;;;;1879271;74;21512;-77
2021/03/25 08:02:49;;;;;;;7.85;4.85;;;6.30;99.90;;;;;;1878371;75;21451;-76
2021/03/25 08:05:15;;;;;;;11.73;4.05;;;6.50;99.90;;;;;;1878619;74;21074;-76
2021/03/25 08:07:41;;;;;;;6.85;3.67;;;6.80;99.90;;;;;;1879972;74;21086;-75
2021/03/25 08:10:07;;;;;;;6.78;3.92;;;7.00;99.90;;;;;;1880214;74;21136;-75
2021/03/25 08:12:34;;;;;;;7.03;4.22;;;7.10;99.90;;;;;;1878551;74;21156;-75
2021/03/25 08:15:00;;;;;;;10.13;4.45;;;7.30;99.90;;;;;;1878224;74;21074;-76
2021/03/25 08:17:26;;;;;;;15.80;4.20;;;7.60;99.90;;;;;;1880476;73;21051;-76
2021/03/25 08:19:52;;;;;;;4.85;3.50;;;7.70;99.90;;;;;;1878910;75;21148;-75
2021/03/25 08:22:18;;;;;;;7.37;3.65;;;7.90;99.90;;;;;;1878834;74;21151;-75
2021/03/25 08:24:44;;;;;;;5.45;3.65;;;8.20;99.90;;;;;;1877460;75;21117;-73
2021/03/25 08:27:11;;;;;;;9.83;4.30;;;8.30;99.90;;;;;;1880431;74;21082;-74
2021/03/25 08:29:37;;;;;;;16.37;3.95;;;8.30;99.90;;;;;;1879379;74;21070;-76
2021/03/25 08:32:03;;;;;;;6.70;4.35;;;8.40;99.90;;;;;;1878865;74;21047;-76
2021/03/25 08:34:29;;;;;;;11.68;4.05;;;8.60;99.90;;;;;;1876080;74;21156;-74
2021/03/25 08:36:56;;;;;;;5.83;3.75;;;8.70;99.90;;;;;;1875219;74;21082;-76
2021/03/25 08:39:26;;;;;;;7.10;4.08;;;8.90;99.90;;;;;;1880189;75;21147;-79
2021/03/25 08:41:51;;;;;;;8.95;4.25;;;9.40;99.90;;;;;;1875087;74;21261;-75
2021/03/25 08:44:17;;;;;;;4.97;3.58;;;9.70;99.90;;;;;;1880193;74;21078;-77
2021/03/25 08:46:50;;;;;;;10.70;4.17;;;9.90;99.90;;;;;;1879958;74;21079;-79
2021/03/25 08:49:17;;;;;;;10.38;3.80;;;9.90;99.90;;;;;;1879963;74;21086;-76
2021/03/25 08:51:43;;;;;;;8.20;3.85;;;10.00;99.90;;;;;;1879782;74;21147;-77
2021/03/25 08:54:09;;;;;;;6.65;3.77;;;10.40;99.90;;;;;;1877363;73;21085;-75
2021/03/25 08:56:35;;;;;;;7.20;3.67;;;10.50;99.90;;;;;;1880238;74;21090;-76
2021/03/25 08:59:01;;;;;;;7.58;4.03;;;10.50;99.90;;;;;;1876932;74;21459;-77
2021/03/25 09:01:27;;;;;;;7.83;3.77;;;10.40;99.90;;;;;;1878658;74;21081;-80
2021/03/25 09:03:53;;;;;;;6.87;3.67;;;10.80;99.90;;;;;;1879084;74;21493;-76
2021/03/25 09:06:20;;;;;;;10.90;3.47;;;11.40;99.90;;;;;;1880597;73;21504;-76
2021/03/25 09:08:52;;;;;;;6.15;3.47;;;11.60;99.90;;;;;;1878923;74;21454;-81
2021/03/25 09:11:15;;;;;;;9.13;3.37;;;11.30;99.90;;;;;;1877736;74;21086;-76
2021/03/25 09:13:41;;;;;;;8.50;3.60;;;11.80;99.90;;;;;;1877441;75;21054;-77
2021/03/25 09:16:09;;;;;;;4.37;3.02;;;12.10;99.90;;;;;;1879723;74;21143;-77
2021/03/25 09:18:36;;;;;;;12.50;3.47;;;11.80;99.90;;;;;;1878633;74;21175;-76
2021/03/25 09:21:02;;;;;;;8.03;3.47;;;11.60;99.90;;;;;;1877007;74;21494;-76
2021/03/25 09:23:28;;;;;;;7.97;3.25;;;11.80;99.90;;;;;;1878172;75;21482;-83
2021/03/25 09:25:55;;;;;;;5.58;3.25;;;12.70;99.90;;;;;;1878596;74;21132;-74
2021/03/25 09:28:21;;;;;;;4.80;3.20;;;12.80;99.90;;;;;;1877282;74;21078;-77
2021/03/25 09:30:47;;;;;;;10.15;3.62;;;13.30;99.90;;;;;;1879802;74;21136;-77
2021/03/25 09:33:13;;;;;;;10.35;3.25;;;13.70;99.90;;;;;;1879960;73;21291;-76
2021/03/25 09:35:39;;;;;;;3.80;2.80;;;13.40;99.90;;;;;;1880203;74;21196;-76
2021/03/25 09:38:05;;;;;;;7.25;3.27;;;13.10;99.90;;;;;;1878478;74;21160;-76
2021/03/25 09:40:31;;;;;;;8.55;3.42;;;13.20;99.90;;;;;;1878919;74;21051;-76
2021/03/25 09:42:57;;;;;;;8.85;2.95;;;13.40;99.90;;;;;;1878371;74;21094;-77
2021/03/25 09:45:23;;;;;;;6.97;3.25;;;13.70;99.90;;;;;;1877694;75;21069;-77
2021/03/25 09:47:50;;;;;;;6.05;2.95;;;14.40;99.90;;;;;;1875917;75;21125;-77
2021/03/25 09:50:16;;;;;;;7.28;3.15;;;14.90;99.90;;;;;;1880428;74;21138;-76
2021/03/25 09:52:43;;;;;;;5.87;2.72;;;14.80;99.90;;;;;;1880588;74;21085;-78
2021/03/25 09:55:09;;;;;;;6.58;3.08;;;14.30;99.90;;;;;;1877433;74;21474;-78
2021/03/25 09:57:35;;;;;;;6.70;3.27;;;15.00;99.90;;;;;;1878929;74;21502;-76
2021/03/25 10:00:01;;;;;;;6.17;3.47;;;15.20;99.90;;;;;;1880169;74;21463;-77
2021/03/25 10:02:27;;;;;;;6.60;3.20;;;14.80;99.90;;;;;;1876938;74;21085;-79
2021/03/25 10:04:53;;;;;;;4.85;2.70;;;14.80;99.90;;;;;;1879616;74;21078;-77
2021/03/25 10:07:19;;;;;;;8.85;2.42;;;15.10;99.90;;;;;;1879481;74;21074;-77
2021/03/25 10:09:45;;;;;;;17.15;3.15;;;15.50;99.90;;;;;;1879196;74;21078;-76
2021/03/25 10:12:12;;;;;;;5.60;2.95;;;15.90;99.90;;;;;;1877781;74;21124;-77
2021/03/25 10:14:38;;;;;;;4.40;2.50;;;16.10;99.90;;;;;;1880815;74;21077;-78
2021/03/25 10:17:04;;;;;;;6.35;2.70;;;16.50;99.90;;;;;;1877591;74;21073;-77
2021/03/25 10:19:30;;;;;;;4.58;2.75;;;16.00;99.90;;;;;;1879113;75;21051;-78
2021/03/25 10:21:56;;;;;;;5.92;2.80;;;16.30;99.90;;;;;;1880999;74;21078;-79
2021/03/25 10:24:22;;;;;;;8.73;2.90;;;16.70;99.90;;;;;;1879412;74;21077;-78
2021/03/25 10:26:48;;;;;;;7.50;2.60;;;16.70;99.90;;;;;;1881039;74;21132;-78
2021/03/25 10:29:15;;;;;;;7.15;2.87;;;15.80;99.90;;;;;;1879894;74;21070;-78
2021/03/25 10:31:41;;;;;;;5.08;2.83;;;16.60;99.90;;;;;;1878639;74;21086;-79
2021/03/25 10:34:07;;;;;;;4.92;2.45;;;17.40;99.90;;;;;;1877764;74;21082;-79
2021/03/25 10:36:33;;;;;;;4.28;2.33;;;17.40;99.90;;;;;;1880838;74;21073;-78
2021/03/25 10:39:00;;;;;;;4.58;2.33;;;17.80;99.90;;;;;;1879836;74;21074;-76
2021/03/25 10:41:26;;;;;;;3.20;2.02;;;17.90;99.90;;;;;;1876456;74;21093;-78
2021/03/25 10:43:53;;;;;;;4.75;2.37;;;17.70;99.60;;;;;;1879508;74;21062;-77
2021/03/25 10:46:19;;;;;;;3.98;2.60;;;18.30;97.80;;;;;;1877600;75;21148;-77
2021/03/25 10:48:45;;;;;;;8.45;2.62;;;18.40;96.10;;;;;;1877106;74;21141;-77
2021/03/25 10:51:11;;;;;;;5.90;2.12;;;18.10;97.30;;;;;;1878174;74;21082;-76
2021/03/25 10:53:38;;;;;;;4.75;2.02;;;18.30;96.00;;;;;;1880482;75;21051;-77
2021/03/25 10:56:04;;;;;;;6.55;2.30;;;18.50;96.30;;;;;;1878115;74;21071;-77
2021/03/25 10:58:30;;;;;;;6.12;2.45;;;18.20;95.50;;;;;;1877492;73;21082;-77
2021/03/25 11:00:56;;;;;;;9.15;2.52;;;17.80;96.60;;;;;;1878273;74;21081;-77
2021/03/25 11:03:22;;;;;;;5.87;2.60;;;17.60;96.50;;;;;;1876971;74;21188;-78
2021/03/25 11:05:48;;;;;;;5.22;2.12;;;17.50;96.50;;;;;;1878718;74;21140;-77
2021/03/25 11:08:14;;;;;;;3.17;2.25;;;17.80;96.60;;;;;;1875464;74;21151;-77
2021/03/25 11:10:40;;;;;;;8.43;2.70;;;18.20;96.00;;;;;;1880182;74;21090;-78
2021/03/25 11:13:07;;;;;;;3.77;2.10;;;18.60;93.50;;;;;;1872138;75;21042;-78
2021/03/25 11:15:33;;;;;;;7.25;3.10;;;18.80;93.00;;;;;;1878887;74;21083;-77
2021/03/25 11:18:00;;;;;;;10.75;2.27;;;18.70;93.00;;;;;;1878984;74;21150;-76
2021/03/25 11:20:28;;;;;;;7.25;2.50;;;19.20;91.60;;;;;;1880748;74;21143;-76
2021/03/25 11:22:54;;;;;;;3.92;2.37;;;19.50;90.60;;;;;;1880783;75;21097;-76
2021/03/25 11:25:20;;;;;;;3.72;2.00;;;19.90;88.00;;;;;;1877206;75;21140;-77
2021/03/25 11:27:46;;;;;;;5.03;2.35;;;20.00;84.50;;;;;;1878700;75;21086;-76
2021/03/25 11:30:12;;;;;;;3.25;1.87;;;19.70;85.60;;;;;;1879804;75;21077;-77
2021/03/25 11:32:39;;;;;;;8.65;1.87;;;19.80;82.30;;;;;;1876038;74;21086;-76
2021/03/25 11:35:05;;;;;;;4.25;1.92;;;19.30;84.40;;;;;;1880118;74;21039;-76
2021/03/25 11:37:31;;;;;;;10.20;2.20;;;19.50;84.90;;;;;;1878566;74;21124;-78
2021/03/25 11:39:57;;;;;;;3.95;2.05;;;19.80;82.40;;;;;;1879508;75;21078;-78
2021/03/25 11:42:23;;;;;;;4.50;2.05;;;19.40;81.10;;;;;;1878557;74;21094;-76
2021/03/25 11:44:49;;;;;;;5.28;2.50;;;19.90;80.20;;;;;;1879300;74;21124;-78
2021/03/25 11:47:15;;;;;;;6.15;2.12;;;19.70;79.60;;;;;;1877022;75;21109;-76
2021/03/25 11:49:41;;;;;;;10.98;2.40;;;20.10;80.80;;;;;;1878576;74;21073;-76
2021/03/25 11:52:11;;;;;;;6.03;2.42;;;20.70;78.60;;;;;;1876991;74;21137;-76
2021/03/25 11:54:35;;;;;;;8.03;1.92;;;20.90;74.70;;;;;;1876967;75;21517;-76
2021/03/25 11:57:01;;;;;;;5.70;2.22;;;20.80;73.20;;;;;;1878041;73;21463;-77
2021/03/25 11:59:28;;;;;;;7.58;2.10;;;20.70;73.10;;;;;;1878398;74;21575;-77
2021/03/25 12:01:54;;;;;;;7.05;1.80;;;20.40;72.70;;;;;;1878567;74;21502;-77
2021/03/25 12:04:20;;;;;;;6.65;2.02;;;20.20;73.60;;;;;;1877022;74;21564;-77
2021/03/25 12:06:46;;;;;;;5.80;2.05;;;20.80;73.00;;;;;;1878573;74;21242;-77
2021/03/25 12:09:12;;;;;;;4.53;1.98;;;21.20;70.90;;;;;;1877034;75;21086;-77
2021/03/25 12:11:38;;;;;;;4.30;1.95;;;20.90;69.10;;;;;;1877176;74;21081;-77
2021/03/25 12:14:04;;;;;;;5.50;2.12;;;20.50;70.60;;;;;;1878519;74;21074;-77
2021/03/25 12:16:30;;;;;;;4.47;2.00;;;20.60;71.20;;;;;;1875603;74;21055;-76
2021/03/25 12:18:57;;;;;;;4.95;2.02;;;20.50;71.20;;;;;;1878614;74;21066;-76
2021/03/25 12:21:23;;;;;;;5.90;2.20;;;20.90;69.60;;;;;;1880041;74;21086;-77
2021/03/25 12:23:49;;;;;;;6.40;1.87;;;21.00;69.50;;;;;;1875415;74;21097;-77
2021/03/25 12:26:16;;;;;;;4.70;2.00;;;21.20;68.60;;;;;;1880169;74;21094;-77
2021/03/25 12:28:42;;;;;;;7.17;2.72;;;21.50;67.20;;;;;;1879970;74;21050;-77
2021/03/25 12:31:08;;;;;;;7.00;2.15;;;21.50;67.50;;;;;;1878702;74;21082;-77
2021/03/25 12:33:34;;;;;;;3.50;1.90;;;22.20;64.40;;;;;;1879552;74;21131;-77
2021/03/25 12:36:00;;;;;;;7.62;2.45;;;21.90;64.60;;;;;;1876151;74;21152;-76
2021/03/25 12:38:26;;;;;;;9.95;1.92;;;22.10;63.70;;;;;;1878516;74;21050;-75
2021/03/25 12:40:52;;;;;;;5.22;2.55;;;21.40;65.60;;;;;;1880184;73;21074;-76
2021/03/25 12:43:18;;;;;;;7.75;2.70;;;20.20;67.00;;;;;;1879232;74;21086;-76